createdAt,value
2023-03-17T00:01:54.595Z,45.49
2023-03-17T00:04:24.194Z,45.48
2023-03-17T00:06:54.261Z,45.75
2023-03-17T00:09:22.707Z,45.73
2023-03-17T00:11:51.248Z,45.79
2023-03-17T00:14:19.700Z,46.10
2023-03-17T00:16:50.220Z,45.94
2023-03-17T00:19:20.190Z,46.17
2023-03-17T00:21:48.588Z,46.09
2023-03-17T00:24:18.048Z,46.06
2023-03-17T00:26:46.219Z,46.26
2023-03-17T00:29:16.237Z,46.31
2023-03-17T00:31:45.686Z,46.64
2023-03-17T00:34:18.343Z,46.72
2023-03-17T00:36:50.846Z,46.74
2023-03-17T00:39:20.850Z,46.57
2023-03-17T00:41:49.168Z,46.73
2023-03-17T00:44:17.472Z,47.21
2023-03-17T00:46:46.517Z,46.93
2023-03-17T00:49:20.490Z,46.69
2023-03-17T00:51:49.692Z,46.96
2023-03-17T00:54:18.760Z,46.54
2023-03-17T00:56:49.289Z,46.78
2023-03-17T00:59:26.936Z,46.79
2023-03-17T01:01:55.354Z,46.75
2023-03-17T01:04:24.030Z,46.74
2023-03-17T01:06:53.242Z,46.65
2023-03-17T01:09:25.929Z,46.58
2023-03-17T01:11:55.782Z,46.73
2023-03-17T01:14:24.749Z,46.80
2023-03-17T01:16:55.194Z,46.57
2023-03-17T01:19:23.881Z,46.43
2023-03-17T01:21:52.349Z,46.67
2023-03-17T01:24:21.074Z,46.60
2023-03-17T01:26:49.150Z,46.85
2023-03-17T01:29:18.569Z,46.93
2023-03-17T01:31:47.780Z,46.62
2023-03-17T01:34:15.972Z,46.42
2023-03-17T01:36:44.091Z,46.48
2023-03-17T01:39:12.893Z,46.47
2023-03-17T01:41:41.163Z,46.52
2023-03-17T01:44:16.780Z,46.28
2023-03-17T01:46:47.434Z,46.60
2023-03-17T01:49:29.977Z,46.46
2023-03-17T01:52:02.887Z,46.77
2023-03-17T01:54:38.612Z,46.35
2023-03-17T01:57:12.847Z,46.49
2023-03-17T01:59:45.622Z,46.31
2023-03-17T02:02:19.690Z,46.31
2023-03-17T02:04:47.898Z,46.26
2023-03-17T02:07:15.988Z,46.12
2023-03-17T02:09:44.697Z,46.07
2023-03-17T02:12:13.886Z,46.10
2023-03-17T02:14:42.642Z,46.27
2023-03-17T02:17:11.060Z,46.25
2023-03-17T02:19:40.439Z,46.00
2023-03-17T02:22:10.225Z,46.24
2023-03-17T02:24:43.234Z,46.20
2023-03-17T02:27:14.960Z,46.08
2023-03-17T02:29:46.272Z,46.10
2023-03-17T02:32:16.016Z,46.32
2023-03-17T02:34:44.154Z,46.19
2023-03-17T02:37:14.492Z,45.99
2023-03-17T02:39:42.609Z,46.14
2023-03-17T02:42:11.383Z,46.06
2023-03-17T02:44:39.612Z,46.19
2023-03-17T02:47:08.641Z,46.24
2023-03-17T02:49:38.224Z,46.02
2023-03-17T02:52:07.278Z,46.17
2023-03-17T02:54:37.121Z,46.22
2023-03-17T02:57:07.581Z,46.22
2023-03-17T02:59:35.859Z,46.30
2023-03-17T03:02:03.968Z,46.12
2023-03-17T03:04:32.711Z,46.58
2023-03-17T03:07:00.732Z,45.99
2023-03-17T03:09:29.835Z,45.97
2023-03-17T03:11:59.264Z,46.70
2023-03-17T03:14:27.420Z,47.01
2023-03-17T03:16:55.541Z,46.55
2023-03-17T03:19:24.320Z,46.19
2023-03-17T03:21:52.454Z,46.13
2023-03-17T03:24:20.494Z,46.20
2023-03-17T03:26:48.563Z,46.51
2023-03-17T03:29:18.010Z,46.49
2023-03-17T03:31:48.137Z,46.75
2023-03-17T03:34:16.835Z,46.90
2023-03-17T03:36:44.924Z,46.67
2023-03-17T03:39:14.415Z,46.95
2023-03-17T03:41:42.776Z,46.95
2023-03-17T03:44:10.985Z,46.89
2023-03-17T03:46:40.578Z,46.59
2023-03-17T03:49:08.753Z,46.86
2023-03-17T03:51:36.799Z,47.02
2023-03-17T03:54:05.158Z,46.96
2023-03-17T03:56:33.342Z,46.98
2023-03-17T03:59:01.380Z,46.80
2023-03-17T04:01:29.522Z,46.89
2023-03-17T04:03:58.920Z,46.85
2023-03-17T04:06:27.053Z,46.70
2023-03-17T04:08:57.141Z,46.73
2023-03-17T04:11:26.357Z,46.63
2023-03-17T04:13:54.465Z,46.39
2023-03-17T04:16:22.605Z,46.30
2023-03-17T04:18:51.305Z,46.52
2023-03-17T04:21:21.596Z,46.50
2023-03-17T04:23:50.882Z,46.40
2023-03-17T04:26:19.017Z,46.25
2023-03-17T04:28:47.135Z,46.44
2023-03-17T04:31:15.236Z,46.30
2023-03-17T04:33:43.453Z,46.56
2023-03-17T04:36:19.341Z,46.28
2023-03-17T04:38:49.067Z,46.31
2023-03-17T04:41:17.322Z,46.39
2023-03-17T04:43:45.483Z,46.44
2023-03-17T04:46:13.677Z,46.24
2023-03-17T04:48:41.958Z,46.21
2023-03-17T04:51:11.806Z,46.15
2023-03-17T04:53:40.095Z,45.99
2023-03-17T04:56:09.895Z,45.99
2023-03-17T04:58:38.046Z,46.09
2023-03-17T05:01:07.213Z,46.13
2023-03-17T05:03:35.779Z,46.41
2023-03-17T05:06:05.040Z,46.11
2023-03-17T05:08:33.134Z,46.01
2023-03-17T05:11:01.270Z,46.02
2023-03-17T05:13:30.742Z,45.92
2023-03-17T05:16:00.915Z,46.04
2023-03-17T05:18:29.348Z,46.02
2023-03-17T05:20:57.425Z,45.87
2023-03-17T05:23:25.953Z,46.04
2023-03-17T05:25:54.600Z,45.99
2023-03-17T05:28:22.734Z,45.99
2023-03-17T05:30:52.277Z,45.86
2023-03-17T05:33:21.620Z,45.96
2023-03-17T05:35:50.085Z,46.05
2023-03-17T05:38:18.309Z,45.99
2023-03-17T05:40:47.428Z,45.77
2023-03-17T05:43:15.527Z,45.63
2023-03-17T05:45:43.593Z,45.61
2023-03-17T05:48:13.391Z,45.69
2023-03-17T05:50:42.632Z,45.66
2023-03-17T05:53:11.000Z,45.58
2023-03-17T05:55:39.142Z,45.54
2023-03-17T05:58:07.971Z,45.51
2023-03-17T06:00:36.639Z,45.39
2023-03-17T06:03:05.154Z,45.45
2023-03-17T06:05:34.895Z,45.39
2023-03-17T06:08:03.121Z,45.51
2023-03-17T06:10:31.282Z,45.64
2023-03-17T06:13:01.520Z,45.60
2023-03-17T06:15:31.119Z,45.48
2023-03-17T06:17:59.301Z,45.25
2023-03-17T06:20:27.420Z,44.87
2023-03-17T06:23:04.485Z,44.74
2023-03-17T06:25:33.903Z,44.58
2023-03-17T06:28:03.952Z,44.48
2023-03-17T06:30:33.872Z,44.66
2023-03-17T06:33:02.476Z,44.61
2023-03-17T06:35:31.023Z,44.55
2023-03-17T06:38:02.275Z,44.64
2023-03-17T06:40:31.168Z,44.53
2023-03-17T06:42:59.573Z,44.45
2023-03-17T06:45:27.703Z,44.32
2023-03-17T06:47:56.114Z,44.01
2023-03-17T06:50:24.187Z,43.86
2023-03-17T06:52:52.364Z,43.81
2023-03-17T06:55:22.509Z,43.73
2023-03-17T06:57:51.433Z,43.61
2023-03-17T07:00:21.173Z,43.35
2023-03-17T07:02:49.572Z,43.15
2023-03-17T07:05:17.945Z,43.00
2023-03-17T07:07:46.332Z,42.79
2023-03-17T07:10:15.787Z,42.74
2023-03-17T07:12:45.824Z,42.55
2023-03-17T07:15:14.273Z,42.32
2023-03-17T07:17:42.558Z,41.93
2023-03-17T07:20:12.035Z,41.69
2023-03-17T07:22:40.103Z,41.62
2023-03-17T07:25:09.720Z,41.81
2023-03-17T07:27:37.972Z,41.47
2023-03-17T07:30:09.022Z,41.40
2023-03-17T07:32:37.681Z,41.54
2023-03-17T07:35:08.134Z,41.54
2023-03-17T07:37:36.531Z,41.48
2023-03-17T07:40:06.600Z,41.63
2023-03-17T07:42:34.729Z,41.46
2023-03-17T07:45:03.108Z,41.16
2023-03-17T07:47:32.702Z,41.37
2023-03-17T07:50:00.705Z,41.04
2023-03-17T07:52:28.863Z,40.80
2023-03-17T07:54:58.285Z,40.52
2023-03-17T07:57:27.206Z,40.42
2023-03-17T07:59:55.965Z,40.40
2023-03-17T08:02:24.454Z,39.82
2023-03-17T08:04:54.696Z,39.22
2023-03-17T08:07:22.774Z,39.12
2023-03-17T08:09:51.152Z,37.88
2023-03-17T08:12:20.123Z,36.99
2023-03-17T08:14:48.306Z,36.64
2023-03-17T08:17:16.955Z,36.76
2023-03-17T08:19:45.236Z,36.14
2023-03-17T08:22:14.784Z,35.86
2023-03-17T08:24:43.155Z,35.31
2023-03-17T08:27:11.405Z,34.71
2023-03-17T08:29:39.654Z,35.05
2023-03-17T08:32:08.498Z,34.10
2023-03-17T08:34:36.923Z,34.20
2023-03-17T08:37:05.036Z,32.95
2023-03-17T08:39:35.019Z,32.83
2023-03-17T08:42:03.854Z,33.24
2023-03-17T08:44:31.878Z,33.96
2023-03-17T08:46:59.946Z,33.26
2023-03-17T08:49:28.555Z,33.31
2023-03-17T08:51:56.606Z,32.41
2023-03-17T08:54:24.611Z,32.25
2023-03-17T08:56:54.065Z,32.44
2023-03-17T08:59:22.097Z,32.80
2023-03-17T09:01:50.580Z,31.51
2023-03-17T09:04:18.706Z,31.38
2023-03-17T09:07:02.201Z,30.96
2023-03-17T09:09:32.134Z,30.75
2023-03-17T09:12:01.922Z,30.53
2023-03-17T09:14:35.267Z,29.96
2023-03-17T09:17:11.214Z,30.00
2023-03-17T09:19:40.453Z,30.22
2023-03-17T09:22:09.114Z,28.68
2023-03-17T09:24:37.282Z,28.23
2023-03-17T09:27:07.236Z,28.41
2023-03-17T09:29:35.643Z,28.98
2023-03-17T09:32:03.668Z,28.58
2023-03-17T09:34:31.842Z,28.13
2023-03-17T09:37:00.181Z,29.24
2023-03-17T09:39:28.299Z,27.99
2023-03-17T09:42:14.572Z,27.65
2023-03-17T09:44:55.968Z,26.66
2023-03-17T09:47:47.589Z,27.03
2023-03-17T09:50:20.219Z,26.30
2023-03-17T09:52:51.070Z,26.33
2023-03-17T09:55:26.314Z,25.68
2023-03-17T09:57:56.980Z,24.42
2023-03-17T10:00:29.304Z,24.15
2023-03-17T10:02:57.880Z,25.27
2023-03-17T10:05:28.555Z,24.56
2023-03-17T10:08:06.334Z,24.26
2023-03-17T10:10:43.367Z,24.32
2023-03-17T10:13:23.676Z,24.27
2023-03-17T10:15:55.466Z,23.75
2023-03-17T10:18:27.604Z,23.77
2023-03-17T10:20:58.560Z,23.84
2023-03-17T10:23:31.175Z,23.65
2023-03-17T10:26:03.580Z,23.76
2023-03-17T10:28:36.128Z,22.88
2023-03-17T10:31:16.687Z,23.52
2023-03-17T10:33:45.862Z,23.23
2023-03-17T10:36:16.858Z,23.64
2023-03-17T10:38:54.224Z,23.05
2023-03-17T10:41:22.374Z,22.80
2023-03-17T10:43:51.911Z,23.10
2023-03-17T10:46:23.299Z,23.40
2023-03-17T10:48:54.066Z,23.15
2023-03-17T10:51:29.704Z,23.23
2023-03-17T10:54:01.508Z,22.59
2023-03-17T10:56:34.938Z,21.77
2023-03-17T10:59:09.619Z,22.48
2023-03-17T11:01:41.464Z,22.74
2023-03-17T11:04:31.614Z,22.28
2023-03-17T11:07:01.574Z,22.37
2023-03-17T11:09:35.889Z,21.89
2023-03-17T11:12:06.338Z,22.11
2023-03-17T11:14:36.565Z,21.07
2023-03-17T11:17:17.456Z,21.85
2023-03-17T11:19:53.655Z,22.05
2023-03-17T11:22:30.513Z,21.50
2023-03-17T11:25:06.546Z,22.02
2023-03-17T11:27:37.175Z,21.61
2023-03-17T11:30:17.936Z,21.69
2023-03-17T11:32:53.804Z,20.82
2023-03-17T11:35:47.820Z,20.01
2023-03-17T11:38:24.470Z,20.79
2023-03-17T11:41:35.742Z,20.68
2023-03-17T11:44:24.842Z,20.07
2023-03-17T11:47:03.224Z,20.45
2023-03-17T11:49:37.603Z,21.16
2023-03-17T11:52:15.277Z,20.63
2023-03-17T11:54:51.745Z,21.17
2023-03-17T11:57:24.598Z,21.81
2023-03-17T11:59:56.583Z,22.68
2023-03-17T12:02:31.564Z,22.82
2023-03-17T12:05:05.058Z,23.67
2023-03-17T12:07:37.984Z,23.33
2023-03-17T12:10:15.596Z,23.80
2023-03-17T12:12:48.785Z,24.55
2023-03-17T12:15:24.047Z,25.12
2023-03-17T12:17:58.740Z,25.59
2023-03-17T12:20:33.608Z,24.38
2023-03-17T12:23:07.678Z,23.70
2023-03-17T12:25:39.321Z,23.73
2023-03-17T12:28:15.942Z,22.79
2023-03-17T12:30:50.960Z,23.38
2023-03-17T12:33:25.876Z,22.87
2023-03-17T12:35:54.183Z,22.43
2023-03-17T12:38:29.018Z,21.76
2023-03-17T12:41:24.692Z,20.56
2023-03-17T12:44:04.346Z,21.08
2023-03-17T12:46:55.840Z,21.12
2023-03-17T12:50:06.976Z,21.22
2023-03-17T12:52:55.058Z,20.64
2023-03-17T12:55:27.282Z,20.26
2023-03-17T12:58:03.370Z,20.54
2023-03-17T13:00:33.869Z,20.86
2023-03-17T13:03:23.101Z,21.62
2023-03-17T13:05:55.492Z,22.82
2023-03-17T13:08:28.291Z,24.01
2023-03-17T13:11:18.553Z,24.53
2023-03-17T13:13:59.267Z,25.27
2023-03-17T13:16:33.805Z,26.46
2023-03-17T13:19:21.246Z,26.28
2023-03-17T13:22:24.605Z,26.42
2023-03-17T13:24:54.647Z,27.07
2023-03-17T13:27:43.945Z,27.21
2023-03-17T13:30:53.395Z,26.90
2023-03-17T13:33:24.394Z,27.08
2023-03-17T13:36:22.694Z,27.57
2023-03-17T13:39:24.845Z,27.55
2023-03-17T13:42:19.043Z,27.89
2023-03-17T13:45:06.810Z,27.95
2023-03-17T13:47:38.024Z,27.88
2023-03-17T13:50:10.040Z,27.53
2023-03-17T13:52:44.261Z,28.00
2023-03-17T13:55:38.711Z,28.53
2023-03-17T13:58:34.644Z,28.36
2023-03-17T14:01:07.323Z,28.02
2023-03-17T14:03:41.821Z,27.15
2023-03-17T14:06:13.467Z,26.94
2023-03-17T14:08:46.751Z,28.19
2023-03-17T14:11:24.066Z,28.00
2023-03-17T14:14:08.390Z,27.23
2023-03-17T14:16:43.820Z,27.35
2023-03-17T14:19:18.060Z,27.39
2023-03-17T14:21:46.227Z,27.76
2023-03-17T14:24:21.805Z,28.16
2023-03-17T14:26:51.068Z,28.54
2023-03-17T14:29:23.171Z,28.66
2023-03-17T14:32:06.329Z,28.84
2023-03-17T14:34:34.689Z,28.93
2023-03-17T14:37:04.336Z,28.43
2023-03-17T14:39:32.431Z,29.16
2023-03-17T14:42:02.851Z,29.28
2023-03-17T14:44:38.985Z,29.20
2023-03-17T14:47:13.844Z,29.34
2023-03-17T14:49:41.969Z,29.89
2023-03-17T14:52:22.129Z,29.60
2023-03-17T14:54:53.213Z,29.90
2023-03-17T14:57:24.709Z,30.05
2023-03-17T15:00:01.929Z,30.45
2023-03-17T15:02:34.365Z,30.19
2023-03-17T15:05:07.874Z,30.03
2023-03-17T15:07:39.748Z,30.07
2023-03-17T15:10:16.520Z,30.67
2023-03-17T15:12:46.691Z,30.69
2023-03-17T15:15:23.850Z,30.85
2023-03-17T15:17:53.377Z,30.87
2023-03-17T15:20:21.806Z,30.83
2023-03-17T15:22:56.942Z,30.58
2023-03-17T15:25:28.947Z,30.80
2023-03-17T15:27:57.276Z,31.05
2023-03-17T15:30:37.355Z,31.05
2023-03-17T15:33:21.095Z,31.23
2023-03-17T15:35:49.470Z,31.16
2023-03-17T15:38:17.573Z,31.41
2023-03-17T15:40:45.736Z,31.59
2023-03-17T15:43:16.341Z,31.51
2023-03-17T15:45:47.471Z,31.61
2023-03-17T15:48:20.442Z,31.61
2023-03-17T15:50:49.612Z,31.82
2023-03-17T15:53:17.972Z,32.12
2023-03-17T15:55:46.191Z,31.99
2023-03-17T15:58:14.321Z,32.17
2023-03-17T16:00:42.995Z,32.16
2023-03-17T16:03:19.768Z,32.13
2023-03-17T16:05:48.023Z,32.43
2023-03-17T16:08:17.917Z,32.38
2023-03-17T16:10:46.739Z,32.45
2023-03-17T16:13:14.970Z,32.76
2023-03-17T16:15:44.888Z,32.88
2023-03-17T16:18:18.850Z,32.96
2023-03-17T16:20:48.925Z,33.09
2023-03-17T16:23:19.221Z,33.02
2023-03-17T16:25:47.805Z,32.93
2023-03-17T16:28:18.012Z,32.89
2023-03-17T16:30:47.428Z,32.97
2023-03-17T16:33:20.744Z,33.02
2023-03-17T16:35:49.636Z,33.20
2023-03-17T16:38:19.757Z,33.18
2023-03-17T16:40:49.781Z,33.16
2023-03-17T16:43:25.526Z,33.24
2023-03-17T16:45:55.424Z,33.28
2023-03-17T16:48:25.201Z,33.48
2023-03-17T16:50:53.587Z,33.63
2023-03-17T16:53:21.831Z,33.47
2023-03-17T16:55:50.842Z,33.54
2023-03-17T16:58:21.593Z,33.60
2023-03-17T17:00:51.404Z,33.76
2023-03-17T17:03:19.603Z,33.76
2023-03-17T17:05:49.232Z,34.08
2023-03-17T17:08:17.363Z,34.41
2023-03-17T17:10:45.588Z,34.36
2023-03-17T17:13:14.553Z,34.70
2023-03-17T17:15:43.539Z,34.88
2023-03-17T17:18:15.651Z,34.85
2023-03-17T17:20:45.230Z,35.41
2023-03-17T17:23:16.617Z,35.65
2023-03-17T17:25:44.968Z,36.07
2023-03-17T17:28:17.398Z,36.31
2023-03-17T17:30:47.910Z,36.53
2023-03-17T17:33:16.937Z,36.63
2023-03-17T17:35:46.250Z,36.92
2023-03-17T17:38:21.943Z,36.99
2023-03-17T17:40:50.791Z,37.37
2023-03-17T17:43:19.242Z,37.55
2023-03-17T17:45:49.608Z,37.73
2023-03-17T17:48:18.064Z,37.91
2023-03-17T17:50:47.344Z,37.85
2023-03-17T17:53:15.734Z,37.97
2023-03-17T17:55:46.995Z,38.07
2023-03-17T17:58:17.034Z,38.27
2023-03-17T18:00:45.431Z,38.35
2023-03-17T18:03:13.506Z,38.46
2023-03-17T18:05:41.841Z,38.68
2023-03-17T18:08:11.763Z,38.75
2023-03-17T18:10:39.819Z,38.96
2023-03-17T18:13:09.663Z,39.17
2023-03-17T18:15:37.884Z,39.10
2023-03-17T18:18:06.804Z,39.39
2023-03-17T18:20:35.362Z,39.58
2023-03-17T18:23:03.833Z,39.72
2023-03-17T18:25:38.948Z,39.61
2023-03-17T18:28:07.046Z,39.93
2023-03-17T18:30:36.576Z,39.98
2023-03-17T18:33:08.677Z,40.19
2023-03-17T18:35:37.344Z,40.35
2023-03-17T18:38:09.086Z,40.38
2023-03-17T18:40:37.670Z,40.46
2023-03-17T18:43:06.102Z,40.53
2023-03-17T18:45:34.285Z,40.68
2023-03-17T18:48:03.878Z,40.71
2023-03-17T18:50:32.148Z,40.81
2023-03-17T18:53:00.362Z,40.81
2023-03-17T18:55:28.466Z,40.82
2023-03-17T18:57:56.532Z,41.00
2023-03-17T19:00:26.229Z,41.04
2023-03-17T19:02:54.651Z,41.13
2023-03-17T19:05:24.461Z,41.24
2023-03-17T19:07:52.575Z,41.47
2023-03-17T19:10:21.765Z,41.51
2023-03-17T19:12:50.660Z,41.54
2023-03-17T19:15:19.563Z,41.60
2023-03-17T19:17:47.707Z,41.69
2023-03-17T19:20:15.939Z,41.84
2023-03-17T19:22:45.526Z,41.88
2023-03-17T19:25:13.609Z,42.06
2023-03-17T19:27:41.632Z,42.08
2023-03-17T19:30:10.936Z,42.31
2023-03-17T19:32:39.014Z,42.42
2023-03-17T19:35:08.406Z,42.41
2023-03-17T19:37:38.065Z,42.38
2023-03-17T19:40:10.583Z,42.29
2023-03-17T19:42:38.609Z,42.51
2023-03-17T19:45:07.989Z,42.65
2023-03-17T19:47:36.187Z,42.69
2023-03-17T19:50:04.392Z,42.67
2023-03-17T19:52:32.441Z,42.69
2023-03-17T19:55:00.518Z,42.71
2023-03-17T19:57:31.186Z,42.85
2023-03-17T19:59:59.297Z,42.92
2023-03-17T20:02:27.380Z,42.93
2023-03-17T20:04:55.657Z,43.00
2023-03-17T20:07:23.818Z,43.16
2023-03-17T20:09:53.357Z,43.13
2023-03-17T20:12:21.742Z,43.19
2023-03-17T20:14:51.671Z,43.16
2023-03-17T20:17:20.691Z,43.31
2023-03-17T20:19:48.804Z,43.36
2023-03-17T20:22:17.170Z,43.44
2023-03-17T20:24:45.774Z,43.64
2023-03-17T20:27:15.385Z,43.67
2023-03-17T20:29:43.985Z,43.62
2023-03-17T20:32:14.940Z,43.69
2023-03-17T20:34:43.699Z,43.78
2023-03-17T20:37:14.151Z,43.84
2023-03-17T20:39:42.399Z,43.89
2023-03-17T20:42:14.576Z,43.87
2023-03-17T20:44:43.013Z,43.89
2023-03-17T20:47:11.448Z,43.97
2023-03-17T20:49:42.692Z,44.02
2023-03-17T20:52:13.344Z,44.11
2023-03-17T20:54:41.688Z,44.06
2023-03-17T20:57:14.052Z,44.13
2023-03-17T20:59:43.862Z,44.21
2023-03-17T21:02:15.776Z,44.18
2023-03-17T21:04:47.667Z,44.11
2023-03-17T21:07:17.007Z,44.16
2023-03-17T21:09:45.636Z,43.98
2023-03-17T21:12:15.436Z,44.06
2023-03-17T21:14:44.163Z,43.92
2023-03-17T21:17:12.727Z,43.79
2023-03-17T21:19:41.763Z,43.93
2023-03-17T21:22:12.502Z,43.95
2023-03-17T21:24:41.389Z,44.01
2023-03-17T21:27:12.024Z,43.99
2023-03-17T21:29:40.991Z,43.90
2023-03-17T21:32:09.507Z,44.02
2023-03-17T21:34:38.253Z,44.00
2023-03-17T21:37:06.473Z,43.99
2023-03-17T21:39:36.274Z,44.26
2023-03-17T21:42:05.281Z,44.49
2023-03-17T21:44:33.482Z,44.57
2023-03-17T21:47:02.960Z,44.67
2023-03-17T21:49:31.164Z,44.67
2023-03-17T21:51:59.280Z,44.73
2023-03-17T21:54:28.398Z,44.63
2023-03-17T21:56:58.361Z,44.60
2023-03-17T21:59:29.303Z,44.85
2023-03-17T22:01:57.871Z,44.77
2023-03-17T22:04:26.355Z,44.83
2023-03-17T22:06:55.615Z,44.74
2023-03-17T22:09:23.689Z,44.72
2023-03-17T22:11:51.730Z,44.67
2023-03-17T22:14:21.142Z,44.60
2023-03-17T22:16:49.778Z,44.71
2023-03-17T22:19:21.107Z,44.72
2023-03-17T22:21:50.006Z,44.69
2023-03-17T22:24:18.148Z,44.50
2023-03-17T22:26:46.682Z,44.42
2023-03-17T22:29:15.078Z,44.33
2023-03-17T22:31:44.608Z,44.26
2023-03-17T22:34:12.720Z,44.37
2023-03-17T22:36:41.202Z,44.46
2023-03-17T22:39:10.553Z,44.37
2023-03-17T22:41:38.932Z,44.35
2023-03-17T22:44:08.407Z,44.42
2023-03-17T22:46:37.584Z,44.28
2023-03-17T22:49:07.842Z,44.19
2023-03-17T22:51:37.002Z,43.96
2023-03-17T22:54:05.678Z,43.76
2023-03-17T22:56:33.777Z,43.62
2023-03-17T22:59:01.927Z,43.37
2023-03-17T23:01:30.062Z,43.39
2023-03-17T23:03:58.610Z,43.06
2023-03-17T23:06:28.028Z,42.96
2023-03-17T23:08:56.320Z,42.82
2023-03-17T23:11:26.188Z,42.63
2023-03-17T23:13:55.363Z,42.59
2023-03-17T23:16:23.461Z,42.40
2023-03-17T23:18:52.685Z,42.21
2023-03-17T23:21:23.926Z,42.08
2023-03-17T23:23:53.325Z,42.06
2023-03-17T23:26:21.624Z,41.85
2023-03-17T23:28:49.618Z,41.84
2023-03-17T23:31:19.429Z,41.82
2023-03-17T23:33:47.965Z,41.58
2023-03-17T23:36:17.035Z,41.68
2023-03-17T23:38:46.767Z,41.68
2023-03-17T23:41:17.490Z,41.77
2023-03-17T23:43:46.874Z,41.66
2023-03-17T23:46:15.285Z,41.77
2023-03-17T23:48:43.558Z,41.74
2023-03-17T23:51:12.913Z,41.62
2023-03-17T23:53:41.718Z,41.54
2023-03-17T23:56:11.204Z,41.56
2023-03-17T23:58:41.481Z,41.48
